createdAt,value
2017-12-19T00:00:34.165Z,102382.33
2017-12-19T00:03:02.222Z,102386.27
2017-12-19T00:05:30.268Z,102382.77
2017-12-19T00:07:58.302Z,102375.23
2017-12-19T00:10:26.368Z,102370.80
2017-12-19T00:12:54.412Z,102381.19
2017-12-19T00:15:22.764Z,102379.52
2017-12-19T00:17:51.078Z,102374.73
2017-12-19T00:20:19.428Z,102376.00
2017-12-19T00:22:47.754Z,102377.80
2017-12-19T00:25:16.106Z,102383.75
2017-12-19T00:27:44.430Z,102387.36
2017-12-19T00:30:12.971Z,102398.64
2017-12-19T00:32:41.293Z,102396.06
2017-12-19T00:35:09.764Z,102399.49
2017-12-19T00:37:38.078Z,102390.19
2017-12-19T00:40:06.422Z,102391.95
2017-12-19T00:42:34.746Z,102396.88
2017-12-19T00:45:03.089Z,102387.62
2017-12-19T00:47:31.417Z,102398.55
2017-12-19T00:49:59.767Z,102407.73
2017-12-19T00:52:28.090Z,102416.02
2017-12-19T00:54:56.439Z,102419.87
2017-12-19T00:57:24.762Z,102412.09
2017-12-19T00:59:53.106Z,102424.81
2017-12-19T01:02:21.434Z,102430.86
2017-12-19T01:04:49.780Z,102434.91
2017-12-19T01:07:18.106Z,102444.00
2017-12-19T01:09:46.454Z,102458.95
2017-12-19T01:12:14.778Z,102458.99
2017-12-19T01:14:43.122Z,102467.63
2017-12-19T01:17:11.451Z,102472.53
2017-12-19T01:19:39.811Z,102477.22
2017-12-19T01:22:08.136Z,102486.06
2017-12-19T01:24:36.477Z,102487.78
2017-12-19T01:27:04.801Z,102494.36
2017-12-19T01:29:33.150Z,102492.16
2017-12-19T01:32:01.474Z,102500.16
2017-12-19T01:34:29.818Z,102506.17
2017-12-19T01:36:58.142Z,102495.77
2017-12-19T01:39:26.486Z,102497.52
2017-12-19T01:41:54.811Z,102494.36
2017-12-19T01:44:23.159Z,102497.47
2017-12-19T01:46:51.482Z,102489.95
2017-12-19T01:49:19.835Z,102498.80
2017-12-19T01:51:48.157Z,102492.20
2017-12-19T01:54:16.502Z,102486.62
2017-12-19T01:56:44.825Z,102481.91
2017-12-19T01:59:13.177Z,102476.63
2017-12-19T02:01:41.497Z,102485.28
2017-12-19T02:04:09.841Z,102472.58
2017-12-19T02:06:38.161Z,102475.50
2017-12-19T02:09:06.507Z,102479.75
2017-12-19T02:11:34.830Z,102470.18
2017-12-19T02:14:03.178Z,102471.05
2017-12-19T02:16:32.098Z,102466.36
2017-12-19T02:19:00.441Z,102468.48
2017-12-19T02:21:28.767Z,102468.00
2017-12-19T02:23:57.097Z,102470.33
2017-12-19T02:26:25.446Z,102476.47
2017-12-19T02:28:53.774Z,102476.45
2017-12-19T02:31:22.129Z,102468.23
2017-12-19T02:33:50.450Z,102465.93
2017-12-19T02:36:18.794Z,102462.30
2017-12-19T02:38:47.118Z,102460.56
2017-12-19T02:41:15.467Z,102464.31
2017-12-19T02:43:43.798Z,102472.28
2017-12-19T02:46:12.141Z,102481.59
2017-12-19T02:48:40.467Z,102473.69
2017-12-19T02:51:08.814Z,102468.15
2017-12-19T02:53:37.143Z,102469.77
2017-12-19T02:56:05.490Z,102475.27
2017-12-19T02:58:33.814Z,102476.26
2017-12-19T03:01:02.158Z,102480.25
2017-12-19T03:03:30.490Z,102487.56
2017-12-19T03:05:58.842Z,102477.20
2017-12-19T03:08:27.172Z,102477.74
2017-12-19T03:10:55.519Z,102492.13
2017-12-19T03:13:23.845Z,102488.69
2017-12-19T03:15:52.194Z,102487.30
2017-12-19T03:18:20.518Z,102488.61
2017-12-19T03:20:48.861Z,102481.63
2017-12-19T03:23:17.186Z,102485.98
2017-12-19T03:25:45.534Z,102482.44
2017-12-19T03:28:13.857Z,102475.48
2017-12-19T03:30:42.225Z,102483.28
2017-12-19T03:33:10.534Z,102486.41
2017-12-19T03:35:38.910Z,102490.33
2017-12-19T03:38:07.238Z,102487.72
2017-12-19T03:40:35.583Z,102483.80
2017-12-19T03:43:03.915Z,102480.98
2017-12-19T03:45:32.259Z,102485.36
2017-12-19T03:48:00.586Z,102490.95
2017-12-19T03:50:28.940Z,102489.32
2017-12-19T03:52:57.265Z,102486.01
2017-12-19T03:55:25.606Z,102484.76
2017-12-19T03:57:53.931Z,102482.70
2017-12-19T04:00:22.278Z,102479.77
2017-12-19T04:02:50.601Z,102485.13
2017-12-19T04:05:18.960Z,102480.72
2017-12-19T04:07:47.284Z,102481.66
2017-12-19T04:10:15.642Z,102489.34
2017-12-19T04:12:43.977Z,102502.72
2017-12-19T04:15:12.324Z,102495.50
2017-12-19T04:17:40.647Z,102501.84
2017-12-19T04:20:08.994Z,102506.14
2017-12-19T04:22:37.318Z,102503.53
2017-12-19T04:25:05.662Z,102503.92
2017-12-19T04:27:33.986Z,102510.02
2017-12-19T04:30:02.339Z,102510.47
2017-12-19T04:32:30.658Z,102508.79
2017-12-19T04:34:59.010Z,102515.52
2017-12-19T04:37:27.330Z,102518.58
2017-12-19T04:39:55.674Z,102519.42
2017-12-19T04:42:23.998Z,102520.63
2017-12-19T04:44:52.362Z,102525.64
2017-12-19T04:47:20.699Z,102526.59
2017-12-19T04:49:49.026Z,102516.00
2017-12-19T04:52:17.373Z,102518.63
2017-12-19T04:54:45.698Z,102523.87
2017-12-19T04:57:14.042Z,102523.34
2017-12-19T04:59:42.374Z,102522.47
2017-12-19T05:02:10.717Z,102524.17
2017-12-19T05:04:39.046Z,102521.50
2017-12-19T05:07:07.394Z,102520.70
2017-12-19T05:09:35.726Z,102523.61
2017-12-19T05:12:04.070Z,102510.52
2017-12-19T05:14:32.402Z,102508.73
2017-12-19T05:17:00.742Z,102515.31
2017-12-19T05:19:29.075Z,102512.82
2017-12-19T05:21:57.418Z,102525.17
2017-12-19T05:24:25.748Z,102517.00
2017-12-19T05:26:54.091Z,102525.31
2017-12-19T05:29:22.422Z,102526.62
2017-12-19T05:31:50.778Z,102524.91
2017-12-19T05:34:19.109Z,102532.45
2017-12-19T05:36:47.455Z,102538.16
2017-12-19T05:39:15.787Z,102541.99
2017-12-19T05:41:44.139Z,102545.14
2017-12-19T05:44:12.466Z,102543.88
2017-12-19T05:46:40.814Z,102551.15
2017-12-19T05:49:09.143Z,102556.87
2017-12-19T05:51:37.500Z,102559.06
2017-12-19T05:54:05.874Z,102562.20
2017-12-19T05:56:34.270Z,102557.03
2017-12-19T05:59:02.796Z,102554.38
2017-12-19T06:01:31.144Z,102553.76
2017-12-19T06:03:59.479Z,102564.88
2017-12-19T06:06:27.826Z,102561.48
2017-12-19T06:08:56.158Z,102569.69
2017-12-19T06:11:24.502Z,102569.36
2017-12-19T06:13:52.838Z,102568.91
2017-12-19T06:16:21.191Z,102578.70
2017-12-19T06:18:49.522Z,102580.88
2017-12-19T06:21:17.870Z,102573.08
2017-12-19T06:23:46.202Z,102567.56
2017-12-19T06:26:14.555Z,102565.45
2017-12-19T06:28:42.878Z,102560.16
2017-12-19T06:31:11.225Z,102558.42
2017-12-19T06:33:39.559Z,102557.62
2017-12-19T06:36:07.906Z,102555.81
2017-12-19T06:38:36.247Z,102560.94
2017-12-19T06:41:04.590Z,102560.09
2017-12-19T06:43:39.108Z,102569.31
2017-12-19T06:46:07.939Z,102566.21
2017-12-19T06:48:36.295Z,102569.71
2017-12-19T06:51:04.627Z,102567.20
2017-12-19T06:53:32.959Z,102562.89
2017-12-19T06:56:01.325Z,102559.45
2017-12-19T06:58:29.666Z,102561.65
2017-12-19T07:00:58.012Z,102569.94
2017-12-19T07:03:26.342Z,102570.45
2017-12-19T07:05:54.700Z,102571.82
2017-12-19T07:08:23.163Z,102576.66
2017-12-19T07:10:51.511Z,102575.71
2017-12-19T07:13:19.947Z,102582.35
2017-12-19T07:15:48.280Z,102582.30
2017-12-19T07:18:17.270Z,102581.92
2017-12-19T07:20:46.308Z,102580.23
2017-12-19T07:23:15.087Z,102587.15
2017-12-19T07:25:43.406Z,102590.06
2017-12-19T07:28:11.765Z,102590.97
2017-12-19T07:30:40.094Z,102598.09
2017-12-19T07:33:08.443Z,102594.57
2017-12-19T07:35:36.779Z,102590.56
2017-12-19T07:38:05.135Z,102587.78
2017-12-19T07:40:33.463Z,102592.31
2017-12-19T07:43:01.858Z,102600.61
2017-12-19T07:45:30.139Z,102604.16
2017-12-19T07:47:58.490Z,102603.63
2017-12-19T07:50:26.850Z,102610.32
2017-12-19T07:52:55.254Z,102612.90
2017-12-19T07:55:23.588Z,102614.75
2017-12-19T07:57:51.975Z,102614.81
2017-12-19T08:00:20.362Z,102613.86
2017-12-19T08:02:48.848Z,102619.13
2017-12-19T08:05:17.316Z,102615.55
2017-12-19T08:07:45.767Z,102613.93
2017-12-19T08:10:14.090Z,102609.15
2017-12-19T08:12:42.439Z,102614.42
2017-12-19T08:15:11.113Z,102618.35
2017-12-19T08:17:39.472Z,102617.05
2017-12-19T08:20:07.819Z,102619.75
2017-12-19T08:22:36.179Z,102625.91
2017-12-19T08:25:04.525Z,102633.29
2017-12-19T08:27:32.888Z,102635.03
2017-12-19T08:30:01.223Z,102635.58
2017-12-19T08:32:29.623Z,102643.20
2017-12-19T08:34:57.919Z,102645.49
2017-12-19T08:37:26.276Z,102648.60
2017-12-19T08:39:54.607Z,102649.22
2017-12-19T08:42:22.962Z,102656.08
2017-12-19T08:44:51.286Z,102654.91
2017-12-19T08:47:19.644Z,102648.86
2017-12-19T08:49:47.979Z,102658.81
2017-12-19T08:52:16.338Z,102658.48
2017-12-19T08:54:44.661Z,102661.02
2017-12-19T08:57:13.263Z,102665.82
2017-12-19T08:59:41.588Z,102668.57
2017-12-19T09:02:09.954Z,102672.88
2017-12-19T09:04:38.286Z,102669.81
2017-12-19T09:07:06.645Z,102669.83
2017-12-19T09:09:34.980Z,102670.17
2017-12-19T09:12:03.322Z,102673.41
2017-12-19T09:14:31.654Z,102676.52
2017-12-19T09:17:00.583Z,102681.33
2017-12-19T09:19:28.911Z,102686.98
2017-12-19T09:21:57.266Z,102683.98
2017-12-19T09:24:25.594Z,102686.12
2017-12-19T09:26:53.943Z,102689.66
2017-12-19T09:29:22.268Z,102688.42
2017-12-19T09:31:50.599Z,102694.02
2017-12-19T09:34:18.950Z,102693.50
2017-12-19T09:36:47.470Z,102697.13
2017-12-19T09:39:15.822Z,102696.20
2017-12-19T09:41:44.154Z,102682.32
2017-12-19T09:44:12.499Z,102688.97
2017-12-19T09:46:40.838Z,102692.48
2017-12-19T09:49:09.202Z,102694.20
2017-12-19T09:51:37.531Z,102695.14
2017-12-19T09:54:05.883Z,102695.55
2017-12-19T09:56:34.914Z,102698.19
2017-12-19T09:59:03.266Z,102703.12
2017-12-19T10:01:31.753Z,102697.88
2017-12-19T10:04:00.123Z,102700.39
2017-12-19T10:06:28.457Z,102705.93
2017-12-19T10:08:56.818Z,102708.37
2017-12-19T10:11:25.147Z,102710.09
2017-12-19T10:13:53.498Z,102704.17
2017-12-19T10:16:21.835Z,102706.75
2017-12-19T10:18:50.182Z,102702.42
2017-12-19T10:21:18.507Z,102702.31
2017-12-19T10:23:46.862Z,102704.59
2017-12-19T10:26:15.186Z,102699.16
2017-12-19T10:28:43.534Z,102691.95
2017-12-19T10:31:11.873Z,102687.22
2017-12-19T10:33:44.080Z,102680.54
2017-12-19T10:36:12.414Z,102687.68
2017-12-19T10:38:41.128Z,102690.23
2017-12-19T10:41:09.462Z,102694.94
2017-12-19T10:43:37.831Z,102696.72
2017-12-19T10:46:06.166Z,102698.40
2017-12-19T10:48:34.526Z,102693.64
2017-12-19T10:51:02.851Z,102682.69
2017-12-19T10:53:31.202Z,102682.30
2017-12-19T10:55:59.536Z,102678.32
2017-12-19T10:58:27.891Z,102683.57
2017-12-19T11:00:56.216Z,102685.86
2017-12-19T11:03:24.566Z,102685.33
2017-12-19T11:05:52.896Z,102687.23
2017-12-19T11:08:21.242Z,102683.22
2017-12-19T11:10:49.574Z,102683.01
2017-12-19T11:13:17.935Z,102671.61
2017-12-19T11:15:46.563Z,102672.69
2017-12-19T11:18:14.905Z,102672.80
2017-12-19T11:20:43.238Z,102672.34
2017-12-19T11:23:11.599Z,102672.32
2017-12-19T11:25:39.930Z,102671.03
2017-12-19T11:28:08.274Z,102664.92
2017-12-19T11:30:36.610Z,102653.52
2017-12-19T11:33:04.962Z,102650.91
2017-12-19T11:35:33.303Z,102650.42
2017-12-19T11:38:01.658Z,102645.70
2017-12-19T11:40:29.986Z,102640.41
2017-12-19T11:42:58.358Z,102644.84
2017-12-19T11:45:26.673Z,102650.00
2017-12-19T11:47:55.019Z,102654.81
2017-12-19T11:50:23.346Z,102646.53
2017-12-19T11:52:51.706Z,102648.74
2017-12-19T11:55:20.035Z,102646.53
2017-12-19T11:57:48.422Z,102650.49
2017-12-19T12:00:16.779Z,102651.75
2017-12-19T12:02:45.101Z,102661.74
2017-12-19T12:05:13.454Z,102661.30
2017-12-19T12:07:41.782Z,102653.48
2017-12-19T12:10:10.126Z,102654.34
2017-12-19T12:12:38.458Z,102643.44
2017-12-19T12:15:06.812Z,102645.49
2017-12-19T12:17:35.145Z,102636.89
2017-12-19T12:20:03.499Z,102622.81
2017-12-19T12:22:31.836Z,102618.45
2017-12-19T12:25:00.195Z,102617.20
2017-12-19T12:27:28.527Z,102621.09
2017-12-19T12:29:56.879Z,102625.55
2017-12-19T12:32:25.215Z,102626.78
2017-12-19T12:34:53.606Z,102624.73
2017-12-19T12:37:21.944Z,102619.15
2017-12-19T12:39:50.295Z,102620.48
2017-12-19T12:42:18.636Z,102619.13
2017-12-19T12:44:46.999Z,102615.12
2017-12-19T12:47:15.331Z,102616.91
2017-12-19T12:49:43.677Z,102616.46
2017-12-19T12:52:12.013Z,102626.03
2017-12-19T12:54:40.368Z,102615.95
2017-12-19T12:57:08.693Z,102622.51
2017-12-19T12:59:37.055Z,102611.22
2017-12-19T13:02:05.383Z,102605.48
2017-12-19T13:04:33.735Z,102613.80
2017-12-19T13:07:02.068Z,102613.80
2017-12-19T13:09:30.418Z,102616.32
2017-12-19T13:11:58.750Z,102609.84
2017-12-19T13:14:27.102Z,102610.66
2017-12-19T13:16:55.478Z,102609.50
2017-12-19T13:19:23.835Z,102610.72
2017-12-19T13:21:52.159Z,102594.09
2017-12-19T13:24:20.528Z,102605.07
2017-12-19T13:26:48.862Z,102606.33
2017-12-19T13:29:17.291Z,102606.33
2017-12-19T13:31:45.647Z,102608.56
2017-12-19T13:34:13.979Z,102602.41
2017-12-19T13:36:42.334Z,102604.64
2017-12-19T13:39:10.668Z,102606.75
2017-12-19T13:41:39.020Z,102601.62
2017-12-19T13:44:07.341Z,102598.12
2017-12-19T13:46:35.718Z,102598.45
2017-12-19T13:49:04.027Z,102602.48
2017-12-19T13:51:32.373Z,102597.99
2017-12-19T13:54:00.711Z,102598.02
2017-12-19T13:56:29.063Z,102607.63
2017-12-19T13:58:57.391Z,102607.95
2017-12-19T14:01:25.743Z,102611.48
2017-12-19T14:03:54.066Z,102610.70
2017-12-19T14:06:22.418Z,102599.77
2017-12-19T14:08:50.746Z,102597.14
2017-12-19T14:11:19.098Z,102604.62
2017-12-19T14:13:48.044Z,102600.20
2017-12-19T14:16:16.379Z,102606.35
2017-12-19T14:18:44.714Z,102605.09
2017-12-19T14:21:13.062Z,102607.23
2017-12-19T14:23:41.391Z,102612.52
2017-12-19T14:26:09.747Z,102608.99
2017-12-19T14:28:38.078Z,102611.63
2017-12-19T14:31:06.929Z,102608.08
2017-12-19T14:33:35.259Z,102596.59
2017-12-19T14:36:03.606Z,102605.05
2017-12-19T14:38:31.934Z,102604.50
2017-12-19T14:41:00.291Z,102601.86
2017-12-19T14:43:28.623Z,102605.34
2017-12-19T14:45:56.975Z,102600.48
2017-12-19T14:48:25.495Z,102599.87
2017-12-19T14:50:53.845Z,102608.72
2017-12-19T14:53:22.346Z,102604.32
2017-12-19T14:55:50.993Z,102604.34
2017-12-19T14:58:19.530Z,102603.03
2017-12-19T15:00:47.959Z,102606.08
2017-12-19T15:03:16.303Z,102602.61
2017-12-19T15:05:44.651Z,102596.37
2017-12-19T15:08:12.983Z,102606.90
2017-12-19T15:10:41.335Z,102609.06
2017-12-19T15:13:09.662Z,102613.95
2017-12-19T15:15:38.010Z,102616.58
2017-12-19T15:18:06.343Z,102617.39
2017-12-19T15:20:34.694Z,102620.91
2017-12-19T15:23:03.022Z,102614.76
2017-12-19T15:25:32.313Z,102616.52
2017-12-19T15:28:00.638Z,102622.74
2017-12-19T15:30:29.027Z,102620.55
2017-12-19T15:32:57.322Z,102622.23
2017-12-19T15:35:25.646Z,102628.89
2017-12-19T15:37:54.002Z,102633.63
2017-12-19T15:40:22.330Z,102627.49
2017-12-19T15:42:50.678Z,102627.92
2017-12-19T15:45:19.019Z,102620.44
2017-12-19T15:47:47.370Z,102622.24
2017-12-19T15:50:15.707Z,102613.81
2017-12-19T15:52:44.053Z,102608.59
2017-12-19T15:55:12.386Z,102613.02
2017-12-19T15:57:40.738Z,102611.70
2017-12-19T16:00:09.064Z,102612.13
2017-12-19T16:02:37.685Z,102603.28
2017-12-19T16:05:06.047Z,102616.38
2017-12-19T16:07:34.430Z,102615.00
2017-12-19T16:10:02.759Z,102608.95
2017-12-19T16:12:32.236Z,102602.39
2017-12-19T16:15:00.550Z,102604.61
2017-12-19T16:17:28.903Z,102602.47
2017-12-19T16:19:57.230Z,102608.07
2017-12-19T16:22:25.598Z,102597.91
2017-12-19T16:24:56.822Z,102601.80
2017-12-19T16:27:25.179Z,102597.81
2017-12-19T16:29:53.510Z,102600.06
2017-12-19T16:32:22.508Z,102607.56
2017-12-19T16:34:50.841Z,102605.51
2017-12-19T16:37:19.199Z,102606.84
2017-12-19T16:39:47.662Z,102605.95
2017-12-19T16:42:16.040Z,102605.52
2017-12-19T16:44:44.510Z,102612.53
2017-12-19T16:47:13.154Z,102606.84
2017-12-19T16:49:41.511Z,102604.69
2017-12-19T16:52:09.854Z,102604.22
2017-12-19T16:54:38.183Z,102606.42
2017-12-19T16:57:06.540Z,102610.34
2017-12-19T16:59:34.876Z,102616.06
2017-12-19T17:02:03.222Z,102610.36
2017-12-19T17:04:31.550Z,102604.66
2017-12-19T17:06:59.908Z,102613.04
2017-12-19T17:09:28.240Z,102609.95
2017-12-19T17:11:56.587Z,102608.17
2017-12-19T17:14:24.915Z,102606.41
2017-12-19T17:16:53.267Z,102604.64
2017-12-19T17:19:21.595Z,102611.62
2017-12-19T17:21:49.946Z,102608.55
2017-12-19T17:24:18.271Z,102608.05
2017-12-19T17:26:46.619Z,102598.84
2017-12-19T17:29:14.953Z,102601.48
2017-12-19T17:31:43.699Z,102597.97
2017-12-19T17:34:12.018Z,102597.55
2017-12-19T17:36:40.346Z,102595.73
2017-12-19T17:39:08.699Z,102597.11
2017-12-19T17:41:37.019Z,102599.28
2017-12-19T17:44:05.370Z,102597.55
2017-12-19T17:46:33.694Z,102594.03
2017-12-19T17:49:02.047Z,102600.64
2017-12-19T17:51:30.374Z,102597.55
2017-12-19T17:53:58.722Z,102606.29
2017-12-19T17:56:27.054Z,102602.34
2017-12-19T17:58:55.403Z,102611.61
2017-12-19T18:01:23.735Z,102614.25
2017-12-19T18:03:52.081Z,102607.62
2017-12-19T18:06:20.411Z,102611.12
2017-12-19T18:08:48.762Z,102604.86
2017-12-19T18:11:18.015Z,102604.49
2017-12-19T18:13:46.363Z,102609.36
2017-12-19T18:16:14.693Z,102613.27
2017-12-19T18:18:43.043Z,102607.17
2017-12-19T18:21:11.366Z,102599.69
2017-12-19T18:23:39.718Z,102588.72
2017-12-19T18:26:08.045Z,102593.98
2017-12-19T18:28:36.390Z,102584.73
2017-12-19T18:31:04.927Z,102582.11
2017-12-19T18:33:33.413Z,102591.31
2017-12-19T18:36:01.743Z,102597.84
2017-12-19T18:38:30.099Z,102586.86
2017-12-19T18:40:58.431Z,102586.34
2017-12-19T18:43:26.778Z,102595.59
2017-12-19T18:45:55.114Z,102595.17
2017-12-19T18:48:24.302Z,102599.09
2017-12-19T18:50:52.637Z,102604.86
2017-12-19T18:53:20.989Z,102608.82
2017-12-19T18:55:49.317Z,102609.30
2017-12-19T18:58:17.669Z,102607.55
2017-12-19T19:00:45.999Z,102601.45
2017-12-19T19:03:14.351Z,102601.45
2017-12-19T19:05:42.990Z,102606.63
2017-12-19T19:08:11.346Z,102603.55
2017-12-19T19:10:39.671Z,102605.27
2017-12-19T19:13:08.064Z,102609.19
2017-12-19T19:15:36.347Z,102606.51
2017-12-19T19:18:04.695Z,102603.49
2017-12-19T19:20:33.018Z,102613.64
2017-12-19T19:23:01.375Z,102603.91
2017-12-19T19:25:30.536Z,102616.20
2017-12-19T19:27:58.886Z,102606.63
2017-12-19T19:30:27.219Z,102607.09
2017-12-19T19:32:55.579Z,102602.22
2017-12-19T19:35:23.963Z,102602.67
2017-12-19T19:37:52.338Z,102607.95
2017-12-19T19:40:20.668Z,102611.45
2017-12-19T19:42:48.999Z,102603.98
2017-12-19T19:45:18.251Z,102605.32
2017-12-19T19:47:46.580Z,102611.05
2017-12-19T19:50:15.855Z,102602.22
2017-12-19T19:52:44.336Z,102593.88
2017-12-19T19:55:14.126Z,102583.30
2017-12-19T19:57:43.351Z,102578.01
2017-12-19T20:00:11.703Z,102587.62
2017-12-19T20:02:40.033Z,102579.77
2017-12-19T20:05:08.396Z,102585.84
2017-12-19T20:07:36.731Z,102577.06
2017-12-19T20:10:05.086Z,102578.52
2017-12-19T20:12:33.422Z,102573.73
2017-12-19T20:15:01.767Z,102580.34
2017-12-19T20:17:31.042Z,102577.77
2017-12-19T20:19:59.397Z,102578.23
2017-12-19T20:22:27.726Z,102579.11
2017-12-19T20:24:56.082Z,102579.55
2017-12-19T20:27:24.454Z,102580.91
2017-12-19T20:29:52.815Z,102576.06
2017-12-19T20:32:21.160Z,102569.88
2017-12-19T20:34:49.737Z,102557.56
2017-12-19T20:37:18.830Z,102553.16
2017-12-19T20:39:47.619Z,102552.67
2017-12-19T20:42:16.260Z,102557.53
2017-12-19T20:44:45.192Z,102559.29
2017-12-19T20:47:13.876Z,102558.81
2017-12-19T20:49:42.315Z,102565.89
2017-12-19T20:52:10.663Z,102561.47
2017-12-19T20:54:39.063Z,102569.83
2017-12-19T20:57:07.408Z,102573.78
2017-12-19T20:59:35.863Z,102574.24
2017-12-19T21:02:04.213Z,102572.05
2017-12-19T21:04:32.665Z,102570.75
2017-12-19T21:07:01.302Z,102575.55
2017-12-19T21:09:30.397Z,102575.53
2017-12-19T21:11:58.824Z,102579.98
2017-12-19T21:14:27.249Z,102574.25
2017-12-19T21:16:55.558Z,102579.98
2017-12-19T21:19:23.966Z,102579.54
2017-12-19T21:21:52.336Z,102574.27
2017-12-19T21:24:20.687Z,102575.14
2017-12-19T21:26:49.013Z,102584.35
2017-12-19T21:29:17.451Z,102583.05
2017-12-19T21:31:45.767Z,102585.68
2017-12-19T21:34:14.134Z,102588.75
2017-12-19T21:36:42.465Z,102593.99
2017-12-19T21:39:10.910Z,102586.97
2017-12-19T21:41:40.177Z,102586.08
2017-12-19T21:44:08.808Z,102587.38
2017-12-19T21:46:37.236Z,102590.46
2017-12-19T21:49:05.641Z,102594.89
2017-12-19T21:51:34.003Z,102602.38
2017-12-19T21:54:02.458Z,102598.85
2017-12-19T21:56:31.099Z,102604.61
2017-12-19T21:58:59.526Z,102597.12
2017-12-19T22:01:28.309Z,102599.31
2017-12-19T22:03:56.706Z,102611.19
2017-12-19T22:06:25.186Z,102603.30
2017-12-19T22:08:53.514Z,102612.95
2017-12-19T22:11:22.014Z,102614.72
2017-12-19T22:13:50.342Z,102612.52
2017-12-19T22:16:18.790Z,102616.05
2017-12-19T22:18:47.118Z,102609.40
2017-12-19T22:21:15.540Z,102616.85
2017-12-19T22:23:43.910Z,102618.62
2017-12-19T22:26:12.266Z,102612.09
2017-12-19T22:28:40.589Z,102617.82
2017-12-19T22:31:09.928Z,102615.56
2017-12-19T22:33:38.602Z,102604.56
2017-12-19T22:36:07.387Z,102603.25
2017-12-19T22:38:35.806Z,102594.42
2017-12-19T22:41:04.156Z,102594.46
2017-12-19T22:43:32.500Z,102597.09
2017-12-19T22:46:00.859Z,102609.84
2017-12-19T22:48:29.182Z,102608.95
2017-12-19T22:50:57.606Z,102608.98
2017-12-19T22:53:25.930Z,102600.62
2017-12-19T22:55:54.258Z,102594.46
2017-12-19T22:58:22.610Z,102600.20
2017-12-19T23:00:51.421Z,102605.48
2017-12-19T23:03:19.775Z,102604.13
2017-12-19T23:05:48.171Z,102601.06
2017-12-19T23:08:16.905Z,102604.61
2017-12-19T23:10:45.252Z,102595.38
2017-12-19T23:13:13.706Z,102594.06
2017-12-19T23:15:42.843Z,102590.06
2017-12-19T23:18:11.190Z,102586.11
2017-12-19T23:20:39.559Z,102587.88
2017-12-19T23:23:07.911Z,102587.87
2017-12-19T23:25:36.238Z,102589.63
2017-12-19T23:28:04.688Z,102595.31
2017-12-19T23:30:33.014Z,102594.47
2017-12-19T23:33:01.450Z,102592.28
2017-12-19T23:35:29.805Z,102585.69
2017-12-19T23:37:58.146Z,102585.23
2017-12-19T23:40:26.469Z,102579.95
2017-12-19T23:42:54.819Z,102568.94
2017-12-19T23:45:23.150Z,102566.73
2017-12-19T23:47:51.614Z,102567.55
2017-12-19T23:50:19.934Z,102572.82
2017-12-19T23:52:48.458Z,102570.20
2017-12-19T23:55:16.786Z,102565.41
2017-12-19T23:57:45.127Z,102571.56
